sensor_id;sensor_type;location;lat;lon;timestamp;P1;durP1;ratioP1;P2;durP2;ratioP2
78402;SDS011;67687;43.508;1.504;2023-12-28T00:01:32;12.27;;;6.80;;
78402;SDS011;67687;43.508;1.504;2023-12-28T00:03:58;13.87;;;6.87;;
78402;SDS011;67687;43.508;1.504;2023-12-28T00:06:26;14.27;;;7.05;;
78402;SDS011;67687;43.508;1.504;2023-12-28T00:08:53;14.10;;;6.93;;
78402;SDS011;67687;43.508;1.504;2023-12-28T00:11:19;13.57;;;6.30;;
78402;SDS011;67687;43.508;1.504;2023-12-28T00:13:46;12.88;;;6.65;;
78402;SDS011;67687;43.508;1.504;2023-12-28T00:16:12;14.33;;;6.83;;
78402;SDS011;67687;43.508;1.504;2023-12-28T00:18:39;12.65;;;5.90;;
78402;SDS011;67687;43.508;1.504;2023-12-28T00:21:05;13.18;;;5.93;;
78402;SDS011;67687;43.508;1.504;2023-12-28T00:23:33;12.48;;;6.30;;
78402;SDS011;67687;43.508;1.504;2023-12-28T00:25:59;11.35;;;5.80;;
78402;SDS011;67687;43.508;1.504;2023-12-28T00:28:26;13.73;;;5.37;;
78402;SDS011;67687;43.508;1.504;2023-12-28T00:30:51;11.20;;;5.15;;
78402;SDS011;67687;43.508;1.504;2023-12-28T00:33:18;10.77;;;5.27;;
78402;SDS011;67687;43.508;1.504;2023-12-28T00:35:44;11.50;;;5.13;;
78402;SDS011;67687;43.508;1.504;2023-12-28T00:38:11;9.48;;;4.78;;
78402;SDS011;67687;43.508;1.504;2023-12-28T00:40:39;15.02;;;5.55;;
78402;SDS011;67687;43.508;1.504;2023-12-28T00:43:05;11.05;;;5.43;;
78402;SDS011;67687;43.508;1.504;2023-12-28T00:45:32;11.03;;;5.27;;
78402;SDS011;67687;43.508;1.504;2023-12-28T00:47:58;11.77;;;5.20;;
78402;SDS011;67687;43.508;1.504;2023-12-28T00:50:25;8.20;;;4.60;;
78402;SDS011;67687;43.508;1.504;2023-12-28T00:52:52;12.38;;;4.82;;
78402;SDS011;67687;43.508;1.504;2023-12-28T00:55:19;11.75;;;4.93;;
78402;SDS011;67687;43.508;1.504;2023-12-28T00:57:46;9.77;;;4.80;;
78402;SDS011;67687;43.508;1.504;2023-12-28T01:00:13;10.13;;;5.32;;
78402;SDS011;67687;43.508;1.504;2023-12-28T01:02:40;6.07;;;3.50;;
78402;SDS011;67687;43.508;1.504;2023-12-28T01:05:07;14.55;;;4.55;;
78402;SDS011;67687;43.508;1.504;2023-12-28T01:07:33;9.07;;;4.60;;
78402;SDS011;67687;43.508;1.504;2023-12-28T01:10:00;10.17;;;4.53;;
78402;SDS011;67687;43.508;1.504;2023-12-28T01:12:26;10.55;;;4.05;;
78402;SDS011;67687;43.508;1.504;2023-12-28T01:14:54;10.23;;;4.50;;
78402;SDS011;67687;43.508;1.504;2023-12-28T01:17:21;11.20;;;4.45;;
78402;SDS011;67687;43.508;1.504;2023-12-28T01:19:47;11.18;;;4.72;;
78402;SDS011;67687;43.508;1.504;2023-12-28T01:22:14;10.40;;;5.10;;
78402;SDS011;67687;43.508;1.504;2023-12-28T01:24:40;8.63;;;4.68;;
78402;SDS011;67687;43.508;1.504;2023-12-28T01:27:07;10.77;;;5.40;;
78402;SDS011;67687;43.508;1.504;2023-12-28T01:29:33;13.18;;;5.95;;
78402;SDS011;67687;43.508;1.504;2023-12-28T01:32:02;11.05;;;5.30;;
78402;SDS011;67687;43.508;1.504;2023-12-28T01:34:29;9.90;;;4.73;;
78402;SDS011;67687;43.508;1.504;2023-12-28T01:36:55;10.75;;;5.10;;
78402;SDS011;67687;43.508;1.504;2023-12-28T01:39:22;10.82;;;5.03;;
78402;SDS011;67687;43.508;1.504;2023-12-28T01:41:48;11.27;;;4.90;;
78402;SDS011;67687;43.508;1.504;2023-12-28T01:44:15;8.85;;;4.80;;
78402;SDS011;67687;43.508;1.504;2023-12-28T01:46:41;11.80;;;5.47;;
78402;SDS011;67687;43.508;1.504;2023-12-28T01:49:09;10.50;;;5.20;;
78402;SDS011;67687;43.508;1.504;2023-12-28T01:51:36;9.90;;;5.20;;
78402;SDS011;67687;43.508;1.504;2023-12-28T01:54:03;12.27;;;6.82;;
78402;SDS011;67687;43.508;1.504;2023-12-28T01:56:29;98.60;;;39.25;;
78402;SDS011;67687;43.508;1.504;2023-12-28T01:58:56;44.83;;;16.23;;
78402;SDS011;67687;43.508;1.504;2023-12-28T02:01:22;193.07;;;48.35;;
78402;SDS011;67687;43.508;1.504;2023-12-28T02:03:51;385.98;;;96.30;;
78402;SDS011;67687;43.508;1.504;2023-12-28T02:06:19;222.70;;;53.50;;
78402;SDS011;67687;43.508;1.504;2023-12-28T02:08:48;351.83;;;81.88;;
78402;SDS011;67687;43.508;1.504;2023-12-28T02:11:14;103.33;;;29.97;;
78402;SDS011;67687;43.508;1.504;2023-12-28T02:13:41;101.63;;;27.23;;
78402;SDS011;67687;43.508;1.504;2023-12-28T02:16:09;267.73;;;64.28;;
78402;SDS011;67687;43.508;1.504;2023-12-28T02:18:38;295.52;;;73.28;;
78402;SDS011;67687;43.508;1.504;2023-12-28T02:21:06;311.40;;;80.85;;
78402;SDS011;67687;43.508;1.504;2023-12-28T02:23:34;172.73;;;49.50;;
78402;SDS011;67687;43.508;1.504;2023-12-28T02:26:01;205.88;;;56.28;;
78402;SDS011;67687;43.508;1.504;2023-12-28T02:28:28;113.75;;;40.08;;
78402;SDS011;67687;43.508;1.504;2023-12-28T02:30:54;207.63;;;78.68;;
78402;SDS011;67687;43.508;1.504;2023-12-28T02:33:22;327.17;;;129.35;;
78402;SDS011;67687;43.508;1.504;2023-12-28T02:35:52;115.53;;;46.10;;
78402;SDS011;67687;43.508;1.504;2023-12-28T02:38:19;137.57;;;55.17;;
78402;SDS011;67687;43.508;1.504;2023-12-28T02:40:46;63.55;;;26.63;;
78402;SDS011;67687;43.508;1.504;2023-12-28T02:43:15;214.60;;;83.65;;
78402;SDS011;67687;43.508;1.504;2023-12-28T02:45:41;181.88;;;73.43;;
78402;SDS011;67687;43.508;1.504;2023-12-28T02:48:08;48.80;;;21.77;;
78402;SDS011;67687;43.508;1.504;2023-12-28T02:50:34;120.22;;;48.33;;
78402;SDS011;67687;43.508;1.504;2023-12-28T02:53:01;49.13;;;22.55;;
78402;SDS011;67687;43.508;1.504;2023-12-28T02:55:27;65.40;;;27.85;;
78402;SDS011;67687;43.508;1.504;2023-12-28T02:57:55;22.40;;;10.68;;
78402;SDS011;67687;43.508;1.504;2023-12-28T03:00:25;25.20;;;10.80;;
78402;SDS011;67687;43.508;1.504;2023-12-28T03:02:52;125.80;;;47.95;;
78402;SDS011;67687;43.508;1.504;2023-12-28T03:05:19;26.17;;;11.18;;
78402;SDS011;67687;43.508;1.504;2023-12-28T03:07:45;15.30;;;7.60;;
78402;SDS011;67687;43.508;1.504;2023-12-28T03:10:12;15.02;;;6.35;;
78402;SDS011;67687;43.508;1.504;2023-12-28T03:12:38;10.87;;;5.67;;
78402;SDS011;67687;43.508;1.504;2023-12-28T03:15:05;10.32;;;5.22;;
78402;SDS011;67687;43.508;1.504;2023-12-28T03:17:34;9.90;;;5.82;;
78402;SDS011;67687;43.508;1.504;2023-12-28T03:20:02;12.90;;;5.93;;
78402;SDS011;67687;43.508;1.504;2023-12-28T03:22:28;12.77;;;6.57;;
78402;SDS011;67687;43.508;1.504;2023-12-28T03:24:55;15.03;;;7.33;;
78402;SDS011;67687;43.508;1.504;2023-12-28T03:27:21;12.38;;;6.57;;
78402;SDS011;67687;43.508;1.504;2023-12-28T03:29:47;10.98;;;5.80;;
78402;SDS011;67687;43.508;1.504;2023-12-28T03:32:14;13.05;;;6.80;;
78402;SDS011;67687;43.508;1.504;2023-12-28T03:34:42;81.00;;;33.72;;
78402;SDS011;67687;43.508;1.504;2023-12-28T03:37:08;140.47;;;53.90;;
78402;SDS011;67687;43.508;1.504;2023-12-28T03:39:36;37.60;;;17.35;;
78402;SDS011;67687;43.508;1.504;2023-12-28T03:42:03;158.52;;;58.42;;
78402;SDS011;67687;43.508;1.504;2023-12-28T03:44:29;41.75;;;18.23;;
78402;SDS011;67687;43.508;1.504;2023-12-28T03:46:56;15.88;;;8.40;;
78402;SDS011;67687;43.508;1.504;2023-12-28T03:49:22;29.70;;;11.07;;
78402;SDS011;67687;43.508;1.504;2023-12-28T03:51:50;17.85;;;8.07;;
78402;SDS011;67687;43.508;1.504;2023-12-28T03:54:16;33.55;;;16.00;;
78402;SDS011;67687;43.508;1.504;2023-12-28T03:56:43;52.20;;;20.52;;
78402;SDS011;67687;43.508;1.504;2023-12-28T03:59:09;22.15;;;9.15;;
78402;SDS011;67687;43.508;1.504;2023-12-28T04:01:36;16.30;;;8.00;;
78402;SDS011;67687;43.508;1.504;2023-12-28T04:04:03;14.40;;;7.45;;
78402;SDS011;67687;43.508;1.504;2023-12-28T04:06:29;13.85;;;7.35;;
78402;SDS011;67687;43.508;1.504;2023-12-28T04:08:57;29.45;;;12.38;;
78402;SDS011;67687;43.508;1.504;2023-12-28T04:11:24;38.60;;;17.80;;
78402;SDS011;67687;43.508;1.504;2023-12-28T04:13:51;28.87;;;14.07;;
78402;SDS011;67687;43.508;1.504;2023-12-28T04:16:17;16.50;;;9.10;;
78402;SDS011;67687;43.508;1.504;2023-12-28T04:18:43;17.02;;;8.40;;
78402;SDS011;67687;43.508;1.504;2023-12-28T04:21:10;92.43;;;37.45;;
78402;SDS011;67687;43.508;1.504;2023-12-28T04:23:37;44.97;;;20.50;;
78402;SDS011;67687;43.508;1.504;2023-12-28T04:26:05;67.50;;;27.63;;
78402;SDS011;67687;43.508;1.504;2023-12-28T04:28:31;71.10;;;25.13;;
78402;SDS011;67687;43.508;1.504;2023-12-28T04:31:01;131.35;;;36.38;;
78402;SDS011;67687;43.508;1.504;2023-12-28T04:33:28;19.52;;;9.70;;
78402;SDS011;67687;43.508;1.504;2023-12-28T04:35:54;12.50;;;7.78;;
78402;SDS011;67687;43.508;1.504;2023-12-28T04:38:21;17.07;;;7.57;;
78402;SDS011;67687;43.508;1.504;2023-12-28T04:40:48;12.00;;;6.60;;
78402;SDS011;67687;43.508;1.504;2023-12-28T04:43:15;9.90;;;4.20;;
78402;SDS011;67687;43.508;1.504;2023-12-28T04:45:42;9.40;;;4.82;;
78402;SDS011;67687;43.508;1.504;2023-12-28T04:48:09;10.20;;;4.82;;
78402;SDS011;67687;43.508;1.504;2023-12-28T04:50:35;9.10;;;4.47;;
78402;SDS011;67687;43.508;1.504;2023-12-28T04:53:02;9.77;;;4.45;;
78402;SDS011;67687;43.508;1.504;2023-12-28T04:55:29;7.38;;;3.15;;
78402;SDS011;67687;43.508;1.504;2023-12-28T04:57:55;15.18;;;4.55;;
78402;SDS011;67687;43.508;1.504;2023-12-28T05:00:23;9.70;;;5.20;;
78402;SDS011;67687;43.508;1.504;2023-12-28T05:02:50;11.83;;;5.07;;
78402;SDS011;67687;43.508;1.504;2023-12-28T05:05:16;10.57;;;4.78;;
78402;SDS011;67687;43.508;1.504;2023-12-28T05:07:43;7.40;;;3.78;;
78402;SDS011;67687;43.508;1.504;2023-12-28T05:10:09;7.90;;;3.70;;
78402;SDS011;67687;43.508;1.504;2023-12-28T05:12:35;6.43;;;3.50;;
78402;SDS011;67687;43.508;1.504;2023-12-28T05:15:02;9.57;;;4.37;;
78402;SDS011;67687;43.508;1.504;2023-12-28T05:17:31;10.68;;;4.57;;
78402;SDS011;67687;43.508;1.504;2023-12-28T05:19:57;10.05;;;3.88;;
78402;SDS011;67687;43.508;1.504;2023-12-28T05:22:24;9.45;;;4.40;;
78402;SDS011;67687;43.508;1.504;2023-12-28T05:24:50;7.15;;;4.18;;
78402;SDS011;67687;43.508;1.504;2023-12-28T05:27:17;5.50;;;3.03;;
78402;SDS011;67687;43.508;1.504;2023-12-28T05:29:43;7.53;;;3.60;;
78402;SDS011;67687;43.508;1.504;2023-12-28T05:32:10;9.25;;;4.40;;
78402;SDS011;67687;43.508;1.504;2023-12-28T05:34:38;9.35;;;4.60;;
78402;SDS011;67687;43.508;1.504;2023-12-28T05:37:04;10.02;;;3.72;;
78402;SDS011;67687;43.508;1.504;2023-12-28T05:39:31;6.97;;;2.70;;
78402;SDS011;67687;43.508;1.504;2023-12-28T05:41:57;7.38;;;3.78;;
78402;SDS011;67687;43.508;1.504;2023-12-28T05:44:24;7.85;;;4.43;;
78402;SDS011;67687;43.508;1.504;2023-12-28T05:46:50;8.43;;;4.40;;
78402;SDS011;67687;43.508;1.504;2023-12-28T05:49:17;8.05;;;3.50;;
78402;SDS011;67687;43.508;1.504;2023-12-28T05:51:45;6.83;;;3.27;;
78402;SDS011;67687;43.508;1.504;2023-12-28T05:54:11;6.95;;;3.72;;
78402;SDS011;67687;43.508;1.504;2023-12-28T05:56:38;8.55;;;4.30;;
78402;SDS011;67687;43.508;1.504;2023-12-28T05:59:04;8.00;;;4.05;;
78402;SDS011;67687;43.508;1.504;2023-12-28T06:01:31;9.00;;;3.45;;
78402;SDS011;67687;43.508;1.504;2023-12-28T06:03:58;6.47;;;3.20;;
78402;SDS011;67687;43.508;1.504;2023-12-28T06:06:24;10.25;;;4.13;;
78402;SDS011;67687;43.508;1.504;2023-12-28T06:08:52;6.63;;;3.75;;
78402;SDS011;67687;43.508;1.504;2023-12-28T06:11:20;7.20;;;3.53;;
78402;SDS011;67687;43.508;1.504;2023-12-28T06:13:46;10.35;;;4.32;;
78402;SDS011;67687;43.508;1.504;2023-12-28T06:16:13;9.17;;;3.67;;
78402;SDS011;67687;43.508;1.504;2023-12-28T06:18:39;7.38;;;3.83;;
78402;SDS011;67687;43.508;1.504;2023-12-28T06:21:07;12.25;;;3.80;;
78402;SDS011;67687;43.508;1.504;2023-12-28T06:23:34;9.32;;;4.07;;
78402;SDS011;67687;43.508;1.504;2023-12-28T06:26:05;7.65;;;3.83;;
78402;SDS011;67687;43.508;1.504;2023-12-28T06:28:32;6.90;;;3.80;;
78402;SDS011;67687;43.508;1.504;2023-12-28T06:30:58;7.75;;;4.10;;
78402;SDS011;67687;43.508;1.504;2023-12-28T06:33:26;6.10;;;3.47;;
78402;SDS011;67687;43.508;1.504;2023-12-28T06:35:52;10.15;;;3.80;;
78402;SDS011;67687;43.508;1.504;2023-12-28T06:38:19;9.20;;;4.53;;
78402;SDS011;67687;43.508;1.504;2023-12-28T06:40:45;7.60;;;3.90;;
78402;SDS011;67687;43.508;1.504;2023-12-28T06:43:13;7.53;;;3.90;;
78402;SDS011;67687;43.508;1.504;2023-12-28T06:45:40;9.50;;;4.38;;
78402;SDS011;67687;43.508;1.504;2023-12-28T06:48:07;7.22;;;3.80;;
78402;SDS011;67687;43.508;1.504;2023-12-28T06:50:33;8.38;;;3.55;;
78402;SDS011;67687;43.508;1.504;2023-12-28T06:53:00;10.43;;;4.20;;
78402;SDS011;67687;43.508;1.504;2023-12-28T06:55:26;6.97;;;3.10;;
78402;SDS011;67687;43.508;1.504;2023-12-28T06:57:53;7.22;;;3.60;;
78402;SDS011;67687;43.508;1.504;2023-12-28T07:00:21;9.20;;;4.07;;
78402;SDS011;67687;43.508;1.504;2023-12-28T07:02:47;6.97;;;3.50;;
78402;SDS011;67687;43.508;1.504;2023-12-28T07:05:14;6.50;;;3.77;;
78402;SDS011;67687;43.508;1.504;2023-12-28T07:07:40;9.02;;;4.25;;
78402;SDS011;67687;43.508;1.504;2023-12-28T07:10:07;7.90;;;4.03;;
78402;SDS011;67687;43.508;1.504;2023-12-28T07:12:34;8.30;;;3.63;;
78402;SDS011;67687;43.508;1.504;2023-12-28T07:15:00;6.43;;;3.25;;
78402;SDS011;67687;43.508;1.504;2023-12-28T07:17:28;6.47;;;3.70;;
78402;SDS011;67687;43.508;1.504;2023-12-28T07:19:55;7.25;;;4.20;;
78402;SDS011;67687;43.508;1.504;2023-12-28T07:22:21;6.72;;;4.18;;
78402;SDS011;67687;43.508;1.504;2023-12-28T07:24:48;6.30;;;3.95;;
78402;SDS011;67687;43.508;1.504;2023-12-28T07:27:14;6.93;;;3.50;;
78402;SDS011;67687;43.508;1.504;2023-12-28T07:29:41;8.17;;;4.20;;
78402;SDS011;67687;43.508;1.504;2023-12-28T07:32:07;8.27;;;3.55;;
78402;SDS011;67687;43.508;1.504;2023-12-28T07:34:36;8.95;;;4.55;;
78402;SDS011;67687;43.508;1.504;2023-12-28T07:37:02;6.88;;;3.35;;
78402;SDS011;67687;43.508;1.504;2023-12-28T07:39:29;9.30;;;4.88;;
78402;SDS011;67687;43.508;1.504;2023-12-28T07:41:55;10.40;;;3.77;;
78402;SDS011;67687;43.508;1.504;2023-12-28T07:44:22;5.90;;;3.55;;
78402;SDS011;67687;43.508;1.504;2023-12-28T07:46:48;8.63;;;4.07;;
78402;SDS011;67687;43.508;1.504;2023-12-28T07:49:15;6.88;;;3.83;;
78402;SDS011;67687;43.508;1.504;2023-12-28T07:51:44;11.75;;;4.68;;
78402;SDS011;67687;43.508;1.504;2023-12-28T07:54:10;8.03;;;4.17;;
78402;SDS011;67687;43.508;1.504;2023-12-28T07:56:37;10.02;;;3.72;;
78402;SDS011;67687;43.508;1.504;2023-12-28T07:59:03;7.88;;;3.97;;
78402;SDS011;67687;43.508;1.504;2023-12-28T08:01:31;8.60;;;4.50;;
78402;SDS011;67687;43.508;1.504;2023-12-28T08:03:58;7.55;;;3.95;;
78402;SDS011;67687;43.508;1.504;2023-12-28T08:06:25;10.13;;;3.87;;
78402;SDS011;67687;43.508;1.504;2023-12-28T08:08:52;8.10;;;3.67;;
78402;SDS011;67687;43.508;1.504;2023-12-28T08:11:19;8.00;;;3.78;;
78402;SDS011;67687;43.508;1.504;2023-12-28T08:13:46;7.38;;;4.15;;
78402;SDS011;67687;43.508;1.504;2023-12-28T08:16:13;8.50;;;4.43;;
78402;SDS011;67687;43.508;1.504;2023-12-28T08:18:39;7.63;;;3.17;;
78402;SDS011;67687;43.508;1.504;2023-12-28T08:21:06;7.00;;;4.18;;
78402;SDS011;67687;43.508;1.504;2023-12-28T08:23:32;7.55;;;4.05;;
78402;SDS011;67687;43.508;1.504;2023-12-28T08:26:00;6.72;;;3.67;;
78402;SDS011;67687;43.508;1.504;2023-12-28T08:28:27;9.27;;;3.55;;
78402;SDS011;67687;43.508;1.504;2023-12-28T08:30:55;8.97;;;3.77;;
78402;SDS011;67687;43.508;1.504;2023-12-28T08:33:22;9.80;;;3.97;;
78402;SDS011;67687;43.508;1.504;2023-12-28T08:35:48;6.50;;;3.95;;
78402;SDS011;67687;43.508;1.504;2023-12-28T08:38:15;10.60;;;4.53;;
78402;SDS011;67687;43.508;1.504;2023-12-28T08:40:42;5.65;;;3.10;;
78402;SDS011;67687;43.508;1.504;2023-12-28T08:43:10;9.37;;;4.33;;
78402;SDS011;67687;43.508;1.504;2023-12-28T08:45:37;8.52;;;4.18;;
78402;SDS011;67687;43.508;1.504;2023-12-28T08:48:04;8.35;;;3.97;;
78402;SDS011;67687;43.508;1.504;2023-12-28T08:50:30;6.53;;;3.35;;
78402;SDS011;67687;43.508;1.504;2023-12-28T08:52:57;6.78;;;3.67;;
78402;SDS011;67687;43.508;1.504;2023-12-28T08:55:23;5.67;;;3.43;;
78402;SDS011;67687;43.508;1.504;2023-12-28T08:57:50;8.80;;;4.22;;
78402;SDS011;67687;43.508;1.504;2023-12-28T09:00:18;11.35;;;4.50;;
78402;SDS011;67687;43.508;1.504;2023-12-28T09:02:44;8.35;;;3.97;;
78402;SDS011;67687;43.508;1.504;2023-12-28T09:05:11;6.97;;;3.38;;
78402;SDS011;67687;43.508;1.504;2023-12-28T09:07:37;7.27;;;3.70;;
78402;SDS011;67687;43.508;1.504;2023-12-28T09:10:08;7.78;;;3.72;;
78402;SDS011;67687;43.508;1.504;2023-12-28T09:12:35;7.85;;;3.67;;
78402;SDS011;67687;43.508;1.504;2023-12-28T09:15:01;8.07;;;3.60;;
78402;SDS011;67687;43.508;1.504;2023-12-28T09:17:31;7.88;;;3.75;;
78402;SDS011;67687;43.508;1.504;2023-12-28T09:19:58;7.67;;;4.10;;
78402;SDS011;67687;43.508;1.504;2023-12-28T09:22:24;8.65;;;3.67;;
78402;SDS011;67687;43.508;1.504;2023-12-28T09:24:51;8.88;;;4.65;;
78402;SDS011;67687;43.508;1.504;2023-12-28T09:27:17;10.40;;;4.57;;
78402;SDS011;67687;43.508;1.504;2023-12-28T09:29:43;9.55;;;4.65;;
78402;SDS011;67687;43.508;1.504;2023-12-28T09:32:11;11.13;;;5.43;;
78402;SDS011;67687;43.508;1.504;2023-12-28T09:34:39;9.07;;;4.47;;
78402;SDS011;67687;43.508;1.504;2023-12-28T09:37:06;9.70;;;5.22;;
78402;SDS011;67687;43.508;1.504;2023-12-28T09:39:32;9.93;;;4.50;;
78402;SDS011;67687;43.508;1.504;2023-12-28T09:42:00;9.45;;;4.38;;
78402;SDS011;67687;43.508;1.504;2023-12-28T09:44:28;7.97;;;3.70;;
78402;SDS011;67687;43.508;1.504;2023-12-28T09:46:55;10.27;;;4.45;;
78402;SDS011;67687;43.508;1.504;2023-12-28T09:49:22;6.82;;;4.20;;
78402;SDS011;67687;43.508;1.504;2023-12-28T09:51:51;7.70;;;4.70;;
78402;SDS011;67687;43.508;1.504;2023-12-28T09:54:17;11.23;;;5.00;;
78402;SDS011;67687;43.508;1.504;2023-12-28T09:56:44;9.10;;;4.40;;
78402;SDS011;67687;43.508;1.504;2023-12-28T09:59:11;9.05;;;4.43;;
78402;SDS011;67687;43.508;1.504;2023-12-28T10:01:38;7.25;;;3.88;;
78402;SDS011;67687;43.508;1.504;2023-12-28T10:04:05;9.70;;;4.68;;
78402;SDS011;67687;43.508;1.504;2023-12-28T10:06:34;8.25;;;4.18;;
78402;SDS011;67687;43.508;1.504;2023-12-28T10:09:02;8.87;;;4.40;;
78402;SDS011;67687;43.508;1.504;2023-12-28T10:11:29;5.97;;;3.75;;
78402;SDS011;67687;43.508;1.504;2023-12-28T10:13:55;9.68;;;4.60;;
78402;SDS011;67687;43.508;1.504;2023-12-28T10:16:22;8.85;;;4.18;;
78402;SDS011;67687;43.508;1.504;2023-12-28T10:18:49;10.27;;;5.00;;
78402;SDS011;67687;43.508;1.504;2023-12-28T10:21:16;9.83;;;4.97;;
78402;SDS011;67687;43.508;1.504;2023-12-28T10:23:42;8.00;;;4.70;;
78402;SDS011;67687;43.508;1.504;2023-12-28T10:26:10;9.65;;;4.60;;
78402;SDS011;67687;43.508;1.504;2023-12-28T10:28:37;14.43;;;6.25;;
78402;SDS011;67687;43.508;1.504;2023-12-28T10:31:04;8.40;;;4.10;;
78402;SDS011;67687;43.508;1.504;2023-12-28T10:33:34;9.77;;;5.13;;
78402;SDS011;67687;43.508;1.504;2023-12-28T10:36:00;10.57;;;4.72;;
78402;SDS011;67687;43.508;1.504;2023-12-28T10:38:29;8.57;;;4.70;;
78402;SDS011;67687;43.508;1.504;2023-12-28T10:40:59;9.63;;;5.38;;
78402;SDS011;67687;43.508;1.504;2023-12-28T10:43:27;10.60;;;6.07;;
78402;SDS011;67687;43.508;1.504;2023-12-28T10:45:54;15.77;;;5.40;;
78402;SDS011;67687;43.508;1.504;2023-12-28T10:48:22;9.07;;;5.35;;
78402;SDS011;67687;43.508;1.504;2023-12-28T10:50:50;12.02;;;5.70;;
78402;SDS011;67687;43.508;1.504;2023-12-28T10:53:24;10.27;;;5.35;;
78402;SDS011;67687;43.508;1.504;2023-12-28T10:55:53;12.05;;;5.63;;
78402;SDS011;67687;43.508;1.504;2023-12-28T10:58:25;10.33;;;4.93;;
78402;SDS011;67687;43.508;1.504;2023-12-28T11:00:56;7.78;;;4.03;;
78402;SDS011;67687;43.508;1.504;2023-12-28T11:03:27;11.20;;;6.32;;
78402;SDS011;67687;43.508;1.504;2023-12-28T11:05:54;8.77;;;4.55;;
78402;SDS011;67687;43.508;1.504;2023-12-28T11:08:21;7.70;;;4.90;;
78402;SDS011;67687;43.508;1.504;2023-12-28T11:10:48;13.67;;;5.73;;
78402;SDS011;67687;43.508;1.504;2023-12-28T11:13:16;17.85;;;10.35;;
78402;SDS011;67687;43.508;1.504;2023-12-28T11:15:43;10.10;;;5.75;;
78402;SDS011;67687;43.508;1.504;2023-12-28T11:18:13;8.93;;;4.43;;
78402;SDS011;67687;43.508;1.504;2023-12-28T11:20:41;10.57;;;5.35;;
78402;SDS011;67687;43.508;1.504;2023-12-28T11:23:08;9.83;;;5.40;;
78402;SDS011;67687;43.508;1.504;2023-12-28T11:25:34;10.90;;;5.47;;
78402;SDS011;67687;43.508;1.504;2023-12-28T11:28:08;8.13;;;4.93;;
78402;SDS011;67687;43.508;1.504;2023-12-28T11:30:35;9.27;;;5.82;;
78402;SDS011;67687;43.508;1.504;2023-12-28T11:33:01;7.47;;;4.80;;
78402;SDS011;67687;43.508;1.504;2023-12-28T11:35:34;9.70;;;5.23;;
78402;SDS011;67687;43.508;1.504;2023-12-28T11:38:03;12.32;;;5.32;;
78402;SDS011;67687;43.508;1.504;2023-12-28T11:40:31;9.10;;;5.25;;
78402;SDS011;67687;43.508;1.504;2023-12-28T11:42:58;10.77;;;5.30;;
78402;SDS011;67687;43.508;1.504;2023-12-28T11:45:24;8.70;;;4.93;;
78402;SDS011;67687;43.508;1.504;2023-12-28T11:48:00;6.63;;;4.33;;
78402;SDS011;67687;43.508;1.504;2023-12-28T11:50:27;8.80;;;4.68;;
78402;SDS011;67687;43.508;1.504;2023-12-28T11:52:55;10.57;;;5.32;;
78402;SDS011;67687;43.508;1.504;2023-12-28T11:55:21;8.77;;;5.35;;
78402;SDS011;67687;43.508;1.504;2023-12-28T11:57:48;8.27;;;5.43;;
78402;SDS011;67687;43.508;1.504;2023-12-28T12:00:15;9.43;;;5.30;;
78402;SDS011;67687;43.508;1.504;2023-12-28T12:02:43;9.98;;;5.40;;
78402;SDS011;67687;43.508;1.504;2023-12-28T12:05:10;10.85;;;5.03;;
78402;SDS011;67687;43.508;1.504;2023-12-28T12:07:38;10.98;;;5.65;;
78402;SDS011;67687;43.508;1.504;2023-12-28T12:10:07;9.30;;;4.85;;
78402;SDS011;67687;43.508;1.504;2023-12-28T12:12:33;7.23;;;4.07;;
78402;SDS011;67687;43.508;1.504;2023-12-28T12:15:00;9.15;;;5.45;;
78402;SDS011;67687;43.508;1.504;2023-12-28T12:17:27;8.32;;;5.25;;
78402;SDS011;67687;43.508;1.504;2023-12-28T12:19:54;8.23;;;4.30;;
78402;SDS011;67687;43.508;1.504;2023-12-28T12:22:22;6.50;;;4.22;;
78402;SDS011;67687;43.508;1.504;2023-12-28T12:24:49;8.53;;;4.77;;
78402;SDS011;67687;43.508;1.504;2023-12-28T12:27:18;11.68;;;5.88;;
78402;SDS011;67687;43.508;1.504;2023-12-28T12:29:45;11.07;;;5.13;;
78402;SDS011;67687;43.508;1.504;2023-12-28T12:32:11;6.60;;;4.40;;
78402;SDS011;67687;43.508;1.504;2023-12-28T12:34:38;10.68;;;6.07;;
78402;SDS011;67687;43.508;1.504;2023-12-28T12:37:05;8.00;;;4.83;;
78402;SDS011;67687;43.508;1.504;2023-12-28T12:39:31;11.15;;;5.43;;
78402;SDS011;67687;43.508;1.504;2023-12-28T12:41:58;7.40;;;4.60;;
78402;SDS011;67687;43.508;1.504;2023-12-28T12:44:26;7.05;;;4.15;;
78402;SDS011;67687;43.508;1.504;2023-12-28T12:46:59;8.90;;;5.28;;
78402;SDS011;67687;43.508;1.504;2023-12-28T12:49:25;9.00;;;5.10;;
78402;SDS011;67687;43.508;1.504;2023-12-28T12:51:52;10.48;;;4.57;;
78402;SDS011;67687;43.508;1.504;2023-12-28T12:54:18;8.73;;;5.50;;
78402;SDS011;67687;43.508;1.504;2023-12-28T12:56:45;9.50;;;5.90;;
78402;SDS011;67687;43.508;1.504;2023-12-28T12:59:11;7.63;;;5.10;;
78402;SDS011;67687;43.508;1.504;2023-12-28T13:01:42;8.90;;;5.10;;
78402;SDS011;67687;43.508;1.504;2023-12-28T13:04:09;9.75;;;5.30;;
78402;SDS011;67687;43.508;1.504;2023-12-28T13:06:35;9.13;;;5.00;;
78402;SDS011;67687;43.508;1.504;2023-12-28T13:09:01;11.52;;;6.00;;
78402;SDS011;67687;43.508;1.504;2023-12-28T13:11:31;9.43;;;5.15;;
78402;SDS011;67687;43.508;1.504;2023-12-28T13:13:58;7.63;;;4.73;;
78402;SDS011;67687;43.508;1.504;2023-12-28T13:16:24;7.15;;;4.47;;
78402;SDS011;67687;43.508;1.504;2023-12-28T13:18:52;11.52;;;5.45;;
78402;SDS011;67687;43.508;1.504;2023-12-28T13:21:19;8.55;;;4.78;;
78402;SDS011;67687;43.508;1.504;2023-12-28T13:23:45;10.88;;;5.57;;
78402;SDS011;67687;43.508;1.504;2023-12-28T13:26:12;9.17;;;5.20;;
78402;SDS011;67687;43.508;1.504;2023-12-28T13:28:38;7.25;;;4.68;;
78402;SDS011;67687;43.508;1.504;2023-12-28T13:31:05;9.38;;;5.60;;
78402;SDS011;67687;43.508;1.504;2023-12-28T13:33:31;9.60;;;5.60;;
78402;SDS011;67687;43.508;1.504;2023-12-28T13:35:59;9.85;;;5.53;;
78402;SDS011;67687;43.508;1.504;2023-12-28T13:38:25;9.23;;;4.90;;
78402;SDS011;67687;43.508;1.504;2023-12-28T13:40:52;11.38;;;5.75;;
78402;SDS011;67687;43.508;1.504;2023-12-28T13:43:19;7.15;;;4.07;;
78402;SDS011;67687;43.508;1.504;2023-12-28T13:45:45;7.10;;;4.78;;
78402;SDS011;67687;43.508;1.504;2023-12-28T13:48:12;8.13;;;5.72;;
78402;SDS011;67687;43.508;1.504;2023-12-28T13:50:39;7.87;;;4.47;;
78402;SDS011;67687;43.508;1.504;2023-12-28T13:53:07;8.32;;;4.72;;
78402;SDS011;67687;43.508;1.504;2023-12-28T13:55:33;8.55;;;5.18;;
78402;SDS011;67687;43.508;1.504;2023-12-28T13:58:00;9.98;;;6.07;;
78402;SDS011;67687;43.508;1.504;2023-12-28T14:00:28;9.52;;;6.20;;
78402;SDS011;67687;43.508;1.504;2023-12-28T14:02:54;8.37;;;4.57;;
78402;SDS011;67687;43.508;1.504;2023-12-28T14:05:21;9.63;;;4.78;;
78402;SDS011;67687;43.508;1.504;2023-12-28T14:07:48;9.25;;;5.93;;
78402;SDS011;67687;43.508;1.504;2023-12-28T14:10:16;10.13;;;6.25;;
78402;SDS011;67687;43.508;1.504;2023-12-28T14:12:43;10.32;;;5.50;;
78402;SDS011;67687;43.508;1.504;2023-12-28T14:15:09;14.20;;;5.60;;
78402;SDS011;67687;43.508;1.504;2023-12-28T14:17:36;10.80;;;5.07;;
78402;SDS011;67687;43.508;1.504;2023-12-28T14:20:03;10.75;;;6.03;;
78402;SDS011;67687;43.508;1.504;2023-12-28T14:22:32;8.13;;;5.18;;
78402;SDS011;67687;43.508;1.504;2023-12-28T14:24:59;9.35;;;4.63;;
78402;SDS011;67687;43.508;1.504;2023-12-28T14:27:27;8.37;;;5.50;;
78402;SDS011;67687;43.508;1.504;2023-12-28T14:29:54;8.60;;;5.05;;
78402;SDS011;67687;43.508;1.504;2023-12-28T14:32:20;10.73;;;5.53;;
78402;SDS011;67687;43.508;1.504;2023-12-28T14:34:47;8.00;;;5.00;;
78402;SDS011;67687;43.508;1.504;2023-12-28T14:37:14;9.30;;;5.38;;